Time;durP1;ratioP1;P1;durP2;ratioP2;P2;SDS_P1;SDS_P2;PMS_P1;PMS_P2;Temp;Humidity;BMP_temperature;BMP_pressure;BME280_temperature;BME280_humidity;BME280_pressure;Samples;Min_cycle;Max_cycle;Signal;HPM_P1;HPM_P2
2023/08/06 00:00:39;;;;;;;;;;;;;;;14.78;100.00;95753.47;5104452;28;19982;-71
2023/08/06 00:03:05;;;;;;;;;;;;;;;14.74;100.00;95760.31;5105550;28;19940;-70
2023/08/06 00:05:30;;;;;;;;;;;;;;;14.71;100.00;95767.97;5105226;28;19938;-71
2023/08/06 00:07:56;;;;;;;;;;;;;;;14.67;100.00;95780.88;5106317;28;19978;-71
2023/08/06 00:10:22;;;;;;;;;;;;;;;14.64;100.00;95778.75;5105439;28;19937;-71
2023/08/06 00:12:48;;;;;;;;;;;;;;;14.62;100.00;95775.59;5105403;28;19934;-70
2023/08/06 00:15:14;;;;;;;;;;;;;;;14.59;100.00;95781.38;5105346;28;19937;-71
2023/08/06 00:17:40;;;;;;;;;;;;;;;14.57;100.00;95780.84;5105216;28;19959;-79
2023/08/06 00:20:06;;;;;;;;;;;;;;;14.53;100.00;95780.56;5104959;28;19948;-83
2023/08/06 00:22:33;;;;;;;;;;;;;;;14.50;100.00;95777.63;5105132;28;19986;-83
2023/08/06 00:25:00;;;;;;;;;;;;;;;14.47;100.00;95778.94;5105159;28;19936;-83
2023/08/06 00:27:26;;;;;;;;;;;;;;;14.46;100.00;95773.94;5105174;28;20096;-82
2023/08/06 00:29:52;;;;;;;;;;;;;;;14.43;100.00;95766.53;5105693;28;20110;-82
2023/08/06 00:32:18;;;;;;;;;;;;;;;14.39;100.00;95761.75;5105058;28;19941;-83
2023/08/06 00:34:44;;;;;;;;;;;;;;;14.34;100.00;95756.47;5103902;28;20034;-77
2023/08/06 00:37:09;;;;;;;;;;;;;;;14.31;100.00;95761.47;5104918;28;19937;-70
2023/08/06 00:39:35;;;;;;;;;;;;;;;14.29;100.00;95751.19;5103838;28;19984;-71
2023/08/06 00:42:01;;;;;;;;;;;;;;;14.25;100.00;95754.59;5104738;28;19956;-71
2023/08/06 00:44:27;;;;;;;;;;;;;;;14.19;100.00;95748.50;5104837;28;20161;-72
2023/08/06 00:46:53;;;;;;;;;;;;;;;14.13;100.00;95739.78;5104786;28;19939;-71
2023/08/06 00:49:19;;;;;;;;;;;;;;;14.11;100.00;95743.72;5104342;28;19941;-71
2023/08/06 00:51:45;;;;;;;;;;;;;;;14.07;100.00;95740.81;5104750;28;19938;-71
2023/08/06 00:54:10;;;;;;;;;;;;;;;14.06;100.00;95738.44;5104716;28;19944;-73
2023/08/06 00:56:36;;;;;;;;;;;;;;;14.01;100.00;95732.09;5104580;28;19949;-74
2023/08/06 00:59:03;;;;;;;;;;;;;;;13.97;100.00;95730.22;5105116;28;19938;-72
2023/08/06 01:01:29;;;;;;;;;;;;;;;13.94;100.00;95726.25;5104540;28;19958;-73
2023/08/06 01:03:55;;;;;;;;;;;;;;;13.91;100.00;95737.31;5104495;28;19941;-74
2023/08/06 01:06:30;;;;;;;;;;;;;;;13.88;100.00;95737.00;5105312;28;19940;-72
2023/08/06 01:08:58;;;;;;;;;;;;;;;13.85;100.00;95730.41;5105362;28;20205;-74
2023/08/06 01:11:30;;;;;;;;;;;;;;;13.81;100.00;95716.94;5104461;28;19945;-70
2023/08/06 01:14:02;;;;;;;;;;;;;;;13.78;100.00;95730.66;5104405;28;19946;-70
2023/08/06 01:16:28;;;;;;;;;;;;;;;13.75;100.00;95722.44;5104431;28;19946;-71
2023/08/06 01:18:54;;;;;;;;;;;;;;;13.72;100.00;95718.50;5103105;28;19973;-70
2023/08/06 01:21:20;;;;;;;;;;;;;;;13.68;100.00;95716.63;5104232;28;19994;-71
2023/08/06 01:23:46;;;;;;;;;;;;;;;13.64;100.00;95718.97;5104292;28;20225;-71
2023/08/06 01:26:35;;;;;;;;;;;;;;;13.59;100.00;95717.09;5104895;28;20103;-70
2023/08/06 01:29:20;;;;;;;;;;;;;;;13.56;100.00;95717.59;5104542;28;20215;-83
2023/08/06 01:31:48;;;;;;;;;;;;;;;13.54;100.00;95711.00;5103194;28;19935;-70
2023/08/06 01:34:17;;;;;;;;;;;;;;;13.53;100.00;95718.13;5104254;28;19941;-69
2023/08/06 01:36:43;;;;;;;;;;;;;;;13.51;100.00;95714.94;5104179;28;20236;-70
2023/08/06 01:39:10;;;;;;;;;;;;;;;13.49;100.00;95709.13;5104717;28;19941;-69
2023/08/06 01:41:35;;;;;;;;;;;;;;;13.50;100.00;95715.19;5104098;28;19948;-70
2023/08/06 01:44:01;;;;;;;;;;;;;;;13.47;100.00;95711.22;5104133;28;19959;-70
2023/08/06 01:46:27;;;;;;;;;;;;;;;13.44;100.00;95711.75;5102934;28;19945;-85
2023/08/06 01:48:53;;;;;;;;;;;;;;;13.41;100.00;95709.59;5104155;28;19933;-70
2023/08/06 01:51:19;;;;;;;;;;;;;;;13.39;100.00;95715.13;5102949;28;19976;-73
2023/08/06 01:53:45;;;;;;;;;;;;;;;13.39;100.00;95715.13;5104030;28;19947;-73
2023/08/06 01:56:10;;;;;;;;;;;;;;;13.38;100.00;95710.13;5103981;28;19962;-73
2023/08/06 01:58:36;;;;;;;;;;;;;;;13.36;100.00;95699.84;5104010;28;19937;-74
2023/08/06 02:01:02;;;;;;;;;;;;;;;13.36;100.00;95701.69;5105499;28;20153;-73
2023/08/06 02:03:28;;;;;;;;;;;;;;;13.35;100.00;95703.50;5107912;28;20106;-72
2023/08/06 02:05:54;;;;;;;;;;;;;;;13.36;100.00;95697.22;5107885;28;19942;-68
2023/08/06 02:08:20;;;;;;;;;;;;;;;13.35;100.00;95700.88;5106772;28;19938;-81
2023/08/06 02:10:46;;;;;;;;;;;;;;;13.33;100.00;95694.28;5108284;28;19945;-82
2023/08/06 02:13:12;;;;;;;;;;;;;;;13.31;100.00;95684.03;5107730;28;19943;-81
2023/08/06 02:15:42;;;;;;;;;;;;;;;13.29;100.00;95690.56;5107664;28;19933;-81
2023/08/06 02:18:08;;;;;;;;;;;;;;;13.27;100.00;95697.91;5107510;28;19969;-81
2023/08/06 02:20:33;;;;;;;;;;;;;;;13.25;100.00;95686.81;5108190;28;20126;-80
2023/08/06 02:22:59;;;;;;;;;;;;;;;13.24;100.00;95683.41;5107538;28;19963;-80
2023/08/06 02:25:25;;;;;;;;;;;;;;;13.25;100.00;95676.28;5107521;28;19937;-70
2023/08/06 02:27:51;;;;;;;;;;;;;;;13.25;100.00;95666.56;5107423;28;19937;-79
2023/08/06 02:30:17;;;;;;;;;;;;;;;13.26;100.00;95660.25;5107346;28;19934;-80
2023/08/06 02:32:42;;;;;;;;;;;;;;;13.27;100.00;95661.03;5107491;28;20178;-79
2023/08/06 02:35:08;;;;;;;;;;;;;;;13.26;100.00;95647.06;5108156;28;19945;-79
2023/08/06 02:37:34;;;;;;;;;;;;;;;13.26;100.00;95654.19;5107854;28;19944;-79
2023/08/06 02:40:00;;;;;;;;;;;;;;;13.27;100.00;95658.41;5107154;28;19935;-80
2023/08/06 02:42:26;;;;;;;;;;;;;;;13.25;100.00;95655.22;5107102;28;19952;-69
2023/08/06 02:44:54;;;;;;;;;;;;;;;13.22;100.00;95645.22;5106101;28;20126;-79
2023/08/06 02:47:20;;;;;;;;;;;;;;;13.20;100.00;95650.72;5107048;28;19941;-80
2023/08/06 02:49:46;;;;;;;;;;;;;;;13.18;100.00;95642.28;5105973;28;19948;-80
2023/08/06 02:52:12;;;;;;;;;;;;;;;13.18;100.00;95655.44;5107029;28;19947;-79
2023/08/06 02:54:38;;;;;;;;;;;;;;;13.16;100.00;95652.28;5107738;28;19945;-80
2023/08/06 02:57:04;;;;;;;;;;;;;;;13.15;100.00;95648.84;5106857;28;19949;-80
2023/08/06 02:59:30;;;;;;;;;;;;;;;13.15;100.00;95640.19;5107109;28;19938;-80
2023/08/06 03:01:56;;;;;;;;;;;;;;;13.13;100.00;95640.41;5106978;28;20006;-70
2023/08/06 03:04:22;;;;;;;;;;;;;;;13.14;100.00;95641.22;5107612;28;19941;-80
2023/08/06 03:06:51;;;;;;;;;;;;;;;13.15;100.00;95637.53;5106663;28;20005;-80
2023/08/06 03:09:17;;;;;;;;;;;;;;;13.15;100.00;95624.38;5106945;28;19958;-80
2023/08/06 03:11:43;;;;;;;;;;;;;;;13.17;100.00;95632.81;5106321;28;19945;-80
2023/08/06 03:14:09;;;;;;;;;;;;;;;13.16;100.00;95624.09;5106591;28;20260;-79
2023/08/06 03:16:35;;;;;;;;;;;;;;;13.16;100.00;95618.84;5106572;28;19948;-80
2023/08/06 03:19:01;;;;;;;;;;;;;;;13.15;100.00;95614.63;5106403;28;19969;-70
2023/08/06 03:21:27;;;;;;;;;;;;;;;13.15;100.00;95613.84;5106377;28;20024;-72
2023/08/06 03:23:52;;;;;;;;;;;;;;;13.14;100.00;95623.56;5106427;28;19945;-73
2023/08/06 03:26:18;;;;;;;;;;;;;;;13.11;100.00;95623.31;5106387;28;20159;-72
2023/08/06 03:28:44;;;;;;;;;;;;;;;13.10;100.00;95624.34;5106322;28;19935;-73
2023/08/06 03:31:10;;;;;;;;;;;;;;;13.08;100.00;95618.53;5107092;28;20205;-72
2023/08/06 03:33:36;;;;;;;;;;;;;;;13.07;100.00;95616.97;5106243;28;19954;-72
2023/08/06 03:36:02;;;;;;;;;;;;;;;13.06;100.00;95610.91;5106140;28;20160;-72
2023/08/06 03:38:28;;;;;;;;;;;;;;;13.05;100.00;95613.78;5106352;28;20004;-68
2023/08/06 03:40:53;;;;;;;;;;;;;;;13.03;100.00;95621.13;5106033;28;19942;-69
2023/08/06 03:43:19;;;;;;;;;;;;;;;13.02;100.00;95614.28;5105966;28;20304;-70
2023/08/06 03:45:45;;;;;;;;;;;;;;;12.99;100.00;95608.47;5105955;28;20001;-70
2023/08/06 03:48:11;;;;;;;;;;;;;;;13.02;100.00;95622.97;5105908;28;19942;-70
2023/08/06 03:50:38;;;;;;;;;;;;;;;13.03;100.00;95615.88;5105891;28;19938;-69
2023/08/06 03:53:03;;;;;;;;;;;;;;;13.03;100.00;95614.03;5106601;28;19937;-70
2023/08/06 03:55:29;;;;;;;;;;;;;;;13.05;100.00;95616.41;5106586;28;20175;-70
2023/08/06 03:57:55;;;;;;;;;;;;;;;13.05;100.00;95619.84;5105707;28;19964;-70
2023/08/06 04:00:21;;;;;;;;;;;;;;;13.06;100.00;95620.63;5105658;28;19964;-72
2023/08/06 04:02:47;;;;;;;;;;;;;;;13.08;100.00;95621.97;5105507;28;19995;-72
2023/08/06 04:05:13;;;;;;;;;;;;;;;13.10;100.00;95624.34;5106099;28;19940;-72
2023/08/06 04:07:39;;;;;;;;;;;;;;;13.13;100.00;95618.56;5106064;28;19954;-72
2023/08/06 04:10:05;;;;;;;;;;;;;;;13.16;100.00;95620.69;5104289;28;20241;-72
2023/08/06 04:12:36;;;;;;;;;;;;;;;13.18;100.00;95613.31;5105435;28;19937;-72
2023/08/06 04:15:02;;;;;;;;;;;;;;;13.19;100.00;95615.72;5105365;28;19934;-69
2023/08/06 04:17:29;;;;;;;;;;;;;;;13.22;100.00;95624.16;5106016;28;19944;-69
2023/08/06 04:19:58;;;;;;;;;;;;;;;13.22;100.00;95627.56;5105825;28;19945;-70
2023/08/06 04:22:24;;;;;;;;;;;;;;;13.23;100.00;95631.00;5104021;28;19962;-69
2023/08/06 04:24:50;;;;;;;;;;;;;;;13.19;100.00;95641.25;5104486;28;19949;-71
2023/08/06 04:27:16;;;;;;;;;;;;;;;13.16;100.00;95632.00;5105168;28;19934;-70
2023/08/06 04:29:42;;;;;;;;;;;;;;;13.17;100.00;95630.19;5105117;28;19987;-70
2023/08/06 04:32:09;;;;;;;;;;;;;;;13.12;100.00;95628.31;5103953;28;20133;-75
2023/08/06 04:34:36;;;;;;;;;;;;;;;13.08;100.00;95639.59;5105815;28;20121;-72
2023/08/06 04:37:03;;;;;;;;;;;;;;;13.03;100.00;95631.66;5104982;28;19941;-71
2023/08/06 04:39:28;;;;;;;;;;;;;;;13.01;100.00;95639.81;5104936;28;19934;-70
2023/08/06 04:41:55;;;;;;;;;;;;;;;12.99;100.00;95636.63;5104768;28;19956;-69
2023/08/06 04:44:21;;;;;;;;;;;;;;;12.95;100.00;95640.81;5104813;28;19933;-70
2023/08/06 04:46:47;;;;;;;;;;;;;;;12.94;100.00;95641.88;5104836;28;19937;-70
2023/08/06 04:49:12;;;;;;;;;;;;;;;12.97;100.00;95651.88;5105608;28;20228;-69
2023/08/06 04:51:38;;;;;;;;;;;;;;;13.00;100.00;95644.28;5104731;28;19936;-70
2023/08/06 04:54:04;;;;;;;;;;;;;;;13.03;100.00;95647.47;5104709;28;19940;-70
2023/08/06 04:56:31;;;;;;;;;;;;;;;13.03;100.00;95637.72;5105106;28;19960;-69
2023/08/06 04:58:57;;;;;;;;;;;;;;;13.06;100.00;95633.78;5104674;28;19937;-69
2023/08/06 05:01:23;;;;;;;;;;;;;;;13.10;100.00;95640.13;5105383;28;19933;-70
2023/08/06 05:03:49;;;;;;;;;;;;;;;13.12;100.00;95630.94;5104449;28;20007;-68
2023/08/06 05:06:15;;;;;;;;;;;;;;;13.13;100.00;95640.41;5105357;28;19948;-70
2023/08/06 05:08:41;;;;;;;;;;;;;;;13.19;100.00;95655.22;5104789;28;19937;-70
2023/08/06 05:11:06;;;;;;;;;;;;;;;13.32;100.00;95640.03;5104475;28;20124;-70
2023/08/06 05:13:32;;;;;;;;;;;;;;;13.52;100.00;95639.34;5104454;28;19984;-75
2023/08/06 05:15:58;;;;;;;;;;;;;;;13.64;100.00;95639.16;5105265;28;20197;-75
2023/08/06 05:18:24;;;;;;;;;;;;;;;13.64;100.00;95633.88;5104302;28;20021;-75
2023/08/06 05:20:50;;;;;;;;;;;;;;;13.67;100.00;95633.34;5104362;28;19980;-75
2023/08/06 05:23:16;;;;;;;;;;;;;;;13.71;100.00;95629.16;5103234;28;19998;-75
2023/08/06 05:25:42;;;;;;;;;;;;;;;13.71;100.00;95637.06;5104314;28;19950;-75
2023/08/06 05:28:08;;;;;;;;;;;;;;;13.66;100.00;95632.56;5104323;28;19940;-70
2023/08/06 05:30:37;;;;;;;;;;;;;;;13.62;100.00;95647.31;5104335;28;20236;-79
2023/08/06 05:33:02;;;;;;;;;;;;;;;13.55;100.00;95639.63;5104774;28;20094;-80
2023/08/06 05:35:28;;;;;;;;;;;;;;;13.53;100.00;95654.13;5106132;28;19946;-79
2023/08/06 05:37:54;;;;;;;;;;;;;;;13.50;100.00;95658.06;5109207;28;19934;-80
2023/08/06 05:40:20;;;;;;;;;;;;;;;13.47;100.00;95655.13;5108624;28;19940;-81
2023/08/06 05:42:46;;;;;;;;;;;;;;;13.43;100.00;95660.09;5108447;28;20252;-80
2023/08/06 05:45:11;;;;;;;;;;;;;;;13.39;100.00;95662.44;5109117;28;19942;-80
2023/08/06 05:47:37;;;;;;;;;;;;;;;13.35;100.00;95664.00;5108046;28;19943;-69
2023/08/06 05:50:03;;;;;;;;;;;;;;;13.31;100.00;95664.78;5108212;28;19971;-69
2023/08/06 05:52:29;;;;;;;;;;;;;;;13.27;100.00;95668.94;5108192;28;19935;-70
2023/08/06 05:54:55;;;;;;;;;;;;;;;13.26;100.00;95667.34;5108082;28;19940;-70
2023/08/06 05:57:21;;;;;;;;;;;;;;;13.26;100.00;95657.63;5107979;28;20285;-70
2023/08/06 05:59:47;;;;;;;;;;;;;;;13.25;100.00;95656.03;5108549;28;19932;-70
2023/08/06 06:02:12;;;;;;;;;;;;;;;13.27;100.00;95661.84;5108118;28;19982;-70
2023/08/06 06:04:38;;;;;;;;;;;;;;;13.31;100.00;95665.59;5108020;28;20247;-80
2023/08/06 06:07:04;;;;;;;;;;;;;;;13.36;100.00;95668.25;5107875;28;19941;-71
2023/08/06 06:09:30;;;;;;;;;;;;;;;13.42;100.00;95660.34;5106743;28;19944;-72
2023/08/06 06:11:56;;;;;;;;;;;;;;;13.42;100.00;95669.06;5108548;28;19954;-71
2023/08/06 06:14:22;;;;;;;;;;;;;;;13.39;100.00;95664.28;5107732;28;19938;-71
2023/08/06 06:16:48;;;;;;;;;;;;;;;13.37;100.00;95664.53;5107674;28;19947;-72
2023/08/06 06:19:13;;;;;;;;;;;;;;;13.39;100.00;95666.94;5107722;28;20000;-71
2023/08/06 06:21:39;;;;;;;;;;;;;;;13.44;100.00;95674.06;5107602;28;19938;-71
2023/08/06 06:24:05;;;;;;;;;;;;;;;13.44;100.00;95672.25;5107502;28;19956;-78
2023/08/06 06:26:31;;;;;;;;;;;;;;;13.42;100.00;95674.34;5107547;28;20274;-68
2023/08/06 06:28:58;;;;;;;;;;;;;;;13.40;100.00;95673.81;5107459;28;20098;-69
2023/08/06 06:31:24;;;;;;;;;;;;;;;13.36;100.00;95684.03;5107399;28;19938;-69
2023/08/06 06:33:49;;;;;;;;;;;;;;;13.31;100.00;95686.66;5107302;28;20225;-69
2023/08/06 06:36:15;;;;;;;;;;;;;;;13.29;100.00;95691.38;5107265;28;19939;-69
2023/08/06 06:38:41;;;;;;;;;;;;;;;13.30;100.00;95694.81;5106218;28;19940;-69
2023/08/06 06:41:07;;;;;;;;;;;;;;;13.29;100.00;95701.09;5107292;28;19976;-69
2023/08/06 06:43:33;;;;;;;;;;;;;;;13.27;100.00;95706.59;5107152;28;20134;-69
2023/08/06 06:46:00;;;;;;;;;;;;;;;13.26;100.00;95689.22;5106974;28;19984;-69
2023/08/06 06:48:26;;;;;;;;;;;;;;;13.27;100.00;95700.53;5106673;28;19942;-70
2023/08/06 06:50:52;;;;;;;;;;;;;;;13.25;100.00;95699.97;5107020;28;20048;-69
2023/08/06 06:53:18;;;;;;;;;;;;;;;13.20;100.00;95698.91;5107025;28;19940;-69
2023/08/06 06:55:44;;;;;;;;;;;;;;;13.17;100.00;95698.63;5105785;28;19952;-70
2023/08/06 06:58:10;;;;;;;;;;;;;;;13.19;100.00;95692.06;5106875;28;19941;-69
2023/08/06 07:00:36;;;;;;;;;;;;;;;13.22;100.00;95698.66;5106911;28;19935;-69
2023/08/06 07:03:02;;;;;;;;;;;;;;;13.25;100.00;95697.34;5107254;28;20246;-69
2023/08/06 07:05:28;;;;;;;;;;;;;;;13.27;100.00;95693.44;5106679;28;19935;-69
2023/08/06 07:07:54;;;;;;;;;;;;;;;13.27;100.00;95697.91;5106726;28;20120;-68
2023/08/06 07:10:20;;;;;;;;;;;;;;;13.29;100.00;95699.28;5107473;28;19948;-69
2023/08/06 07:12:46;;;;;;;;;;;;;;;13.30;100.00;95700.84;5084718;28;19948;-69
2023/08/06 07:15:12;;;;;;;;;;;;;;;13.31;100.00;95704.28;5084742;28;20001;-68
2023/08/06 07:17:38;;;;;;;;;;;;;;;13.28;100.00;95702.91;5084607;28;19941;-72
2023/08/06 07:20:04;;;;;;;;;;;;;;;13.27;100.00;95700.53;5084523;28;20347;-68
2023/08/06 07:22:30;;;;;;;;;;;;;;;13.26;100.00;95705.00;5084345;28;19989;-68
2023/08/06 07:24:55;;;;;;;;;;;;;;;13.29;100.00;95707.19;5084553;28;19953;-69
2023/08/06 07:27:21;;;;;;;;;;;;;;;13.33;100.00;95712.72;5084400;28;19936;-69
2023/08/06 07:29:48;;;;;;;;;;;;;;;13.37;100.00;95711.94;5084429;28;20119;-69
2023/08/06 07:32:14;;;;;;;;;;;;;;;13.40;100.00;95710.66;5084797;28;19947;-69
2023/08/06 07:34:39;;;;;;;;;;;;;;;13.41;100.00;95712.25;5084243;28;19940;-69
2023/08/06 07:37:05;;;;;;;;;;;;;;;13.44;100.00;95713.56;5084364;28;19936;-70
2023/08/06 07:39:31;;;;;;;;;;;;;;;13.45;100.00;95709.91;5084936;28;19948;-69
2023/08/06 07:41:57;;;;;;;;;;;;;;;13.45;100.00;95723.06;5084534;28;19938;-69
2023/08/06 07:44:24;;;;;;;;;;;;;;;13.44;100.00;95719.66;5084165;28;19941;-68
2023/08/06 07:46:50;;;;;;;;;;;;;;;13.45;100.00;95718.59;5084466;28;19932;-69
2023/08/06 07:49:16;;;;;;;;;;;;;;;13.46;100.00;95708.84;5086002;28;20252;-68
2023/08/06 07:51:41;;;;;;;;;;;;;;;13.47;100.00;95710.44;5106673;28;19950;-68
2023/08/06 07:54:07;;;;;;;;;;;;;;;13.49;100.00;95705.72;5105787;28;19933;-69
2023/08/06 07:56:33;;;;;;;;;;;;;;;13.47;100.00;95716.50;5106162;28;19962;-70
2023/08/06 07:58:59;;;;;;;;;;;;;;;13.46;100.00;95717.56;5104701;28;20020;-73
2023/08/06 08:01:25;;;;;;;;;;;;;;;13.48;100.00;95733.09;5105665;28;19946;-72
2023/08/06 08:03:51;;;;;;;;;;;;;;;13.44;100.00;95732.81;5105603;28;20150;-73
2023/08/06 08:06:17;;;;;;;;;;;;;;;13.45;100.00;95730.97;5105549;28;19956;-73
2023/08/06 08:08:43;;;;;;;;;;;;;;;13.46;100.00;95732.53;5106321;28;19941;-72
2023/08/06 08:11:09;;;;;;;;;;;;;;;13.44;100.00;95730.19;5104388;28;20047;-73
2023/08/06 08:13:35;;;;;;;;;;;;;;;13.39;100.00;95728.28;5105635;28;20069;-71
2023/08/06 08:16:01;;;;;;;;;;;;;;;13.46;100.00;95727.28;5104335;28;20104;-71
2023/08/06 08:18:27;;;;;;;;;;;;;;;13.49;100.00;95724.94;5105200;28;20152;-71
2023/08/06 08:20:53;;;;;;;;;;;;;;;13.59;100.00;95724.22;5105797;28;20034;-71
2023/08/06 08:23:19;;;;;;;;;;;;;;;13.60;100.00;95721.31;5105691;28;20239;-71
2023/08/06 08:25:45;;;;;;;;;;;;;;;13.59;100.00;95717.09;5105210;28;19936;-71
2023/08/06 08:28:11;;;;;;;;;;;;;;;13.58;100.00;95723.41;5105125;28;19974;-70
2023/08/06 08:30:36;;;;;;;;;;;;;;;13.58;100.00;95726.03;5105160;28;20148;-71
2023/08/06 08:33:02;;;;;;;;;;;;;;;13.65;100.00;95730.28;5105097;28;19939;-70
2023/08/06 08:35:28;;;;;;;;;;;;;;;13.62;100.00;95721.06;5105839;28;19943;-70
2023/08/06 08:37:54;;;;;;;;;;;;;;;13.57;100.00;95729.75;5104928;28;20237;-70
2023/08/06 08:40:23;;;;;;;;;;;;;;;13.54;100.00;95727.63;5105027;28;20010;-70
2023/08/06 08:42:49;;;;;;;;;;;;;;;13.56;100.00;95725.50;5104884;28;19958;-70
2023/08/06 08:45:15;;;;;;;;;;;;;;;13.59;100.00;95726.84;5105618;28;19941;-69
2023/08/06 08:47:42;;;;;;;;;;;;;;;13.63;100.00;95732.38;5104831;28;19955;-69
2023/08/06 08:50:09;;;;;;;;;;;;;;;13.63;100.00;95735.03;5104809;28;19947;-69
2023/08/06 08:52:36;;;;;;;;;;;;;;;13.72;100.00;95738.78;5104837;28;19931;-70
2023/08/06 08:55:02;;;;;;;;;;;;;;;13.79;100.00;95740.13;5105240;28;20170;-71
2023/08/06 08:57:27;;;;;;;;;;;;;;;13.84;100.00;95734.13;5104769;28;19950;-70
2023/08/06 08:59:53;;;;;;;;;;;;;;;13.87;100.00;95744.13;5104653;28;19987;-71
2023/08/06 09:02:21;;;;;;;;;;;;;;;13.86;100.00;95744.38;5105049;28;19985;-71
2023/08/06 09:04:48;;;;;;;;;;;;;;;13.87;100.00;95746.78;5103524;28;20225;-70
2023/08/06 09:07:17;;;;;;;;;;;;;;;13.91;100.00;95734.66;5104512;28;19945;-71
2023/08/06 09:09:43;;;;;;;;;;;;;;;14.01;100.00;95732.09;5104211;28;20263;-71
2023/08/06 09:12:14;;;;;;;;;;;;;;;14.11;100.00;95730.53;5104444;28;19954;-71
2023/08/06 09:14:40;;;;;;;;;;;;;;;14.24;100.00;95740.63;5104286;28;19940;-71
2023/08/06 09:17:06;;;;;;;;;;;;;;;14.30;100.00;95744.88;5104745;28;19939;-71
2023/08/06 09:19:32;;;;;;;;;;;;;;;14.25;100.00;95741.41;5104163;28;19962;-71
2023/08/06 09:22:00;;;;;;;;;;;;;;;14.17;100.00;95747.97;5103667;28;20753;-71
2023/08/06 09:24:28;;;;;;;;;;;;;;;14.15;100.00;95760.59;5104760;28;19997;-71
2023/08/06 09:26:54;;;;;;;;;;;;;;;14.11;100.00;95752.44;5104218;28;19949;-70
2023/08/06 09:29:20;;;;;;;;;;;;;;;14.10;100.00;95752.69;5104478;28;19942;-69
2023/08/06 09:31:47;;;;;;;;;;;;;;;14.09;100.00;95761.63;5104303;28;19932;-69
2023/08/06 09:34:16;;;;;;;;;;;;;;;14.13;100.00;95757.44;5104439;28;19941;-69
2023/08/06 09:36:43;;;;;;;;;;;;;;;14.14;100.00;95753.75;5104392;28;20129;-69
2023/08/06 09:39:15;;;;;;;;;;;;;;;14.17;100.00;95764.59;5103965;28;19934;-69
2023/08/06 09:41:42;;;;;;;;;;;;;;;14.12;100.00;95756.66;5104506;28;19938;-70
2023/08/06 09:44:15;;;;;;;;;;;;;;;14.09;100.00;95749.25;5103913;28;19978;-70
2023/08/06 09:46:41;;;;;;;;;;;;;;;14.06;100.00;95752.41;5104015;28;19996;-69
2023/08/06 09:49:08;;;;;;;;;;;;;;;14.01;100.00;95755.03;5104057;28;19938;-72
2023/08/06 09:51:34;;;;;;;;;;;;;;;13.91;100.00;95755.75;5103645;28;19947;-71
2023/08/06 09:54:01;;;;;;;;;;;;;;;13.86;100.00;95753.09;5103857;28;19929;-72
2023/08/06 09:56:28;;;;;;;;;;;;;;;13.85;100.00;95763.88;5103827;28;19954;-71
2023/08/06 09:58:54;;;;;;;;;;;;;;;13.87;100.00;95761.78;5103796;28;19944;-72
2023/08/06 10:01:20;;;;;;;;;;;;;;;13.89;100.00;95757.84;5103761;28;19939;-71
2023/08/06 10:03:47;;;;;;;;;;;;;;;13.91;100.00;95758.38;5104009;28;19957;-70
2023/08/06 10:06:13;;;;;;;;;;;;;;;13.97;100.00;95762.63;5104267;28;20123;-70
2023/08/06 10:08:41;;;;;;;;;;;;;;;14.04;100.00;95769.53;5103713;28;19947;-70
2023/08/06 10:11:07;;;;;;;;;;;;;;;14.09;100.00;95756.34;5103777;28;19940;-70
2023/08/06 10:13:33;;;;;;;;;;;;;;;14.13;100.00;95766.16;5104257;28;19946;-70
2023/08/06 10:15:59;;;;;;;;;;;;;;;14.20;100.00;95773.81;5103720;28;19936;-70
2023/08/06 10:18:25;;;;;;;;;;;;;;;14.27;100.00;95777.00;5103910;28;20148;-70
2023/08/06 10:20:51;;;;;;;;;;;;;;;14.34;100.00;95782.03;5103625;28;19945;-71
2023/08/06 10:23:20;;;;;;;;;;;;;;;14.34;100.00;95774.94;5106576;28;19954;-70
2023/08/06 10:25:53;;;;;;;;;;;;;;;14.34;100.00;95782.03;5107464;28;20138;-69
2023/08/06 10:28:18;;;;;;;;;;;;;;;14.31;100.00;95785.22;5107880;28;19945;-69
2023/08/06 10:30:46;;;;;;;;;;;;;;;14.28;100.00;95785.72;5107281;28;20011;-69
2023/08/06 10:33:12;;;;;;;;;;;;;;;14.29;100.00;95790.75;5107153;28;19945;-69
2023/08/06 10:35:45;;;;;;;;;;;;;;;14.31;100.00;95793.13;5107213;28;19940;-69
2023/08/06 10:38:13;;;;;;;;;;;;;;;14.29;100.00;95784.66;5107100;28;19947;-69
2023/08/06 10:40:39;;;;;;;;;;;;;;;14.26;100.00;95793.09;5107801;28;19941;-70
2023/08/06 10:43:10;;;;;;;;;;;;;;;14.31;100.00;95793.13;5106956;28;19954;-74
2023/08/06 10:45:36;;;;;;;;;;;;;;;14.37;100.00;95800.78;5106705;28;19965;-75
2023/08/06 10:48:02;;;;;;;;;;;;;;;14.42;100.00;95802.66;5106910;28;19963;-73
2023/08/06 10:50:28;;;;;;;;;;;;;;;14.42;100.00;95805.28;5105820;28;19941;-74
2023/08/06 10:52:54;;;;;;;;;;;;;;;14.40;100.00;95817.94;5106853;28;20282;-73
2023/08/06 10:55:28;;;;;;;;;;;;;;;14.40;100.00;95816.13;5106853;28;19945;-74
2023/08/06 10:57:55;;;;;;;;;;;;;;;14.39;100.00;95814.53;5106722;28;19953;-74
2023/08/06 11:00:22;;;;;;;;;;;;;;;14.31;100.00;95817.66;5107511;28;19938;-70
2023/08/06 11:02:49;;;;;;;;;;;;;;;14.28;100.00;95827.91;5106626;28;20228;-71
2023/08/06 11:05:15;;;;;;;;;;;;;;;14.25;100.00;95834.50;5106659;28;19942;-72
2023/08/06 11:07:42;;;;;;;;;;;;;;;14.23;100.00;95823.41;5107195;28;19943;-72
2023/08/06 11:10:09;;;;;;;;;;;;;;;14.22;100.00;95832.38;5107055;28;19947;-72
2023/08/06 11:12:35;;;;;;;;;;;;;;;14.22;100.00;95837.66;5106513;28;19947;-71
2023/08/06 11:15:02;;;;;;;;;;;;;;;14.23;100.00;95839.22;5106580;28;19942;-72
2023/08/06 11:17:28;;;;;;;;;;;;;;;14.21;100.00;95838.69;5107300;28;20105;-69
2023/08/06 11:19:54;;;;;;;;;;;;;;;14.17;100.00;95840.25;5106422;28;19944;-70
2023/08/06 11:22:21;;;;;;;;;;;;;;;14.18;100.00;95836.56;5107124;28;19940;-69
2023/08/06 11:24:47;;;;;;;;;;;;;;;14.12;100.00;95843.66;5106160;28;19976;-70
2023/08/06 11:27:14;;;;;;;;;;;;;;;14.10;100.00;95847.59;5106401;28;19945;-70
2023/08/06 11:29:43;;;;;;;;;;;;;;;14.09;100.00;95843.38;5106590;28;19936;-70
2023/08/06 11:32:09;;;;;;;;;;;;;;;14.08;100.00;95857.59;5106089;28;19931;-69
2023/08/06 11:34:35;;;;;;;;;;;;;;;14.13;100.00;95849.72;5106647;28;20106;-70
2023/08/06 11:37:03;;;;;;;;;;;;;;;14.17;100.00;95841.06;5106388;28;20245;-73
2023/08/06 11:39:29;;;;;;;;;;;;;;;14.24;100.00;95843.47;5106468;28;19937;-70
2023/08/06 11:41:54;;;;;;;;;;;;;;;14.26;100.00;95851.09;5105965;28;19945;-71
2023/08/06 11:44:22;;;;;;;;;;;;;;;14.21;100.00;95842.16;5106676;28;20219;-70
2023/08/06 11:46:55;;;;;;;;;;;;;;;14.26;100.00;95851.91;5105849;28;20232;-71
2023/08/06 11:49:44;;;;;;;;;;;;;;;14.24;100.00;95853.19;5105754;28;20003;-70
2023/08/06 11:52:20;;;;;;;;;;;;;;;14.20;100.00;95861.63;5106324;28;19936;-70
2023/08/06 11:55:02;;;;;;;;;;;;;;;14.14;100.00;95865.28;5105790;28;19937;-69
2023/08/06 11:57:32;;;;;;;;;;;;;;;14.07;100.00;95880.56;5105622;28;19957;-70
2023/08/06 12:00:03;;;;;;;;;;;;;;;13.97;100.00;95877.84;5105694;28;19939;-71
2023/08/06 12:02:37;;;;;;;;;;;;;;;13.89;100.00;95887.00;5105639;28;19935;-70
2023/08/06 12:05:07;;;;;;;;;;;;;;;13.73;100.00;95888.75;5105510;28;20142;-70
2023/08/06 12:07:36;;;;;;;;;;;;;;;13.64;100.00;95900.75;5105481;28;19946;-70
2023/08/06 12:10:02;;;;;;;;;;;;;;;13.64;100.00;95902.59;5105285;28;19988;-70
2023/08/06 12:12:28;;;;;;;;;;;;;;;13.69;100.00;95907.91;5105806;28;19990;-69
2023/08/06 12:14:54;;;;;;;;;;;;;;;13.68;100.00;95907.13;5104204;28;19941;-70
2023/08/06 12:17:20;;;;;;;;;;;;;;;13.71;100.00;95908.47;5105673;28;19943;-69
2023/08/06 12:19:47;;;;;;;;;;;;;;;13.72;100.00;95904.78;5105149;28;19964;-70
2023/08/06 12:22:13;;;;;;;;;;;;;;;13.76;100.00;95908.50;5105968;28;20244;-69
2023/08/06 12:24:40;;;;;;;;;;;;;;;13.77;100.00;95908.28;5105054;28;19959;-69
2023/08/06 12:27:06;;;;;;;;;;;;;;;13.78;100.00;95912.47;5105497;28;19963;-69
2023/08/06 12:29:32;;;;;;;;;;;;;;;13.77;100.00;95915.38;5104976;28;19945;-69
2023/08/06 12:31:58;;;;;;;;;;;;;;;13.74;100.00;95921.94;5105127;28;20110;-69